Time;durP1;ratioP1;P1;durP2;ratioP2;P2;SDS_P1;SDS_P2;PMS_P1;PMS_P2;Temp;Humidity;BMP_temperature;BMP_pressure;BME280_temperature;BME280_humidity;BME280_pressure;Samples;Min_cycle;Max_cycle;Signal;HPM_P1;HPM_P2
2023/03/20 00:01:55;;;;;;;8.45;5.70;;;10.70;99.90;;;;;;5028796;28;20033;-63
2023/03/20 00:04:21;;;;;;;7.43;5.40;;;10.70;99.90;;;;;;5046659;28;20036;-64
2023/03/20 00:06:47;;;;;;;8.85;5.68;;;10.70;99.90;;;;;;5025993;28;20025;-64
2023/03/20 00:09:12;;;;;;;9.57;6.07;;;10.70;99.90;;;;;;5027224;28;20033;-64
2023/03/20 00:11:50;;;;;;;10.95;6.72;;;10.70;99.90;;;;;;5047725;28;20048;-64
2023/03/20 00:14:19;;;;;;;10.52;5.60;;;10.70;99.90;;;;;;5026768;28;20195;-50
2023/03/20 00:16:46;;;;;;;9.13;5.50;;;10.70;99.90;;;;;;5048421;28;20029;-53
2023/03/20 00:19:19;;;;;;;8.80;5.70;;;10.70;99.90;;;;;;5027030;28;20040;-58
2023/03/20 00:21:46;;;;;;;9.70;6.45;;;10.70;99.90;;;;;;5009014;28;20026;-58
2023/03/20 00:24:12;;;;;;;9.23;6.43;;;10.70;99.90;;;;;;5027086;28;20022;-59
2023/03/20 00:26:38;;;;;;;8.43;5.32;;;10.60;99.90;;;;;;5047541;28;20040;-59
2023/03/20 00:29:06;;;;;;;8.50;5.80;;;10.70;99.90;;;;;;5027357;28;20030;-58
2023/03/20 00:31:35;;;;;;;9.82;5.80;;;10.60;99.90;;;;;;5036821;28;20037;-60
2023/03/20 00:34:08;;;;;;;8.05;6.07;;;10.60;99.90;;;;;;5029103;28;20053;-58
2023/03/20 00:36:34;;;;;;;12.90;6.38;;;10.60;99.90;;;;;;5023877;28;20083;-59
2023/03/20 00:39:00;;;;;;;9.27;6.60;;;10.60;99.90;;;;;;5027849;28;20096;-59
2023/03/20 00:41:34;;;;;;;8.07;5.72;;;10.60;99.90;;;;;;5047327;28;20047;-59
2023/03/20 00:44:08;;;;;;;14.98;7.25;;;10.60;99.90;;;;;;5023579;28;20505;-60
2023/03/20 00:46:37;;;;;;;9.32;6.18;;;10.50;99.90;;;;;;5008448;28;20038;-58
2023/03/20 00:49:03;;;;;;;11.02;7.00;;;10.50;99.90;;;;;;5029230;28;20052;-59
2023/03/20 00:51:29;;;;;;;11.98;6.95;;;10.60;99.90;;;;;;5051000;28;20052;-58
2023/03/20 00:53:54;;;;;;;8.65;6.63;;;10.50;99.90;;;;;;5030142;28;20036;-59
2023/03/20 00:56:37;;;;;;;9.07;6.28;;;10.50;99.90;;;;;;5050653;28;20389;-59
2023/03/20 00:59:03;;;;;;;10.13;5.88;;;10.50;99.90;;;;;;5027445;28;20104;-59
2023/03/20 01:01:30;;;;;;;10.70;6.32;;;10.50;99.90;;;;;;5050976;28;20549;-58
2023/03/20 01:03:57;;;;;;;10.40;6.45;;;10.40;99.90;;;;;;5029872;28;20026;-60
2023/03/20 01:06:22;;;;;;;11.65;7.32;;;10.40;99.90;;;;;;5047547;28;20029;-59
2023/03/20 01:08:48;;;;;;;8.30;6.45;;;10.40;99.90;;;;;;5030162;28;20041;-59
2023/03/20 01:11:17;;;;;;;8.45;5.78;;;10.40;99.90;;;;;;5050548;28;20039;-60
2023/03/20 01:13:43;;;;;;;9.32;6.30;;;10.40;99.90;;;;;;5029565;28;20037;-60
2023/03/20 01:16:21;;;;;;;9.10;6.47;;;10.40;99.90;;;;;;5050540;28;20029;-60
2023/03/20 01:18:47;;;;;;;9.68;6.28;;;10.40;99.90;;;;;;5029724;28;20028;-58
2023/03/20 01:21:12;;;;;;;9.57;6.38;;;10.40;99.90;;;;;;5050511;28;20025;-60
2023/03/20 01:23:38;;;;;;;19.73;6.55;;;10.30;99.90;;;;;;5028478;28;20079;-59
2023/03/20 01:26:17;;;;;;;10.30;5.97;;;10.30;99.90;;;;;;5050348;28;20033;-59
2023/03/20 01:28:43;;;;;;;8.55;6.32;;;10.30;99.90;;;;;;5024196;28;20041;-58
2023/03/20 01:31:08;;;;;;;9.43;6.03;;;10.30;99.90;;;;;;5043540;28;20456;-59
2023/03/20 01:33:34;;;;;;;10.45;6.57;;;10.30;99.90;;;;;;5042337;28;20033;-59
2023/03/20 01:36:00;;;;;;;11.50;6.57;;;10.30;99.90;;;;;;5031421;28;20042;-58
2023/03/20 01:38:26;;;;;;;12.65;6.32;;;10.30;99.90;;;;;;5036212;28;20100;-59
2023/03/20 01:41:12;;;;;;;8.27;6.20;;;10.20;99.90;;;;;;5050178;28;20029;-59
2023/03/20 01:43:38;;;;;;;10.07;6.20;;;10.20;99.90;;;;;;5029252;28;20725;-58
2023/03/20 01:46:23;;;;;;;8.70;6.35;;;10.20;99.90;;;;;;5049948;28;20072;-58
2023/03/20 01:48:48;;;;;;;8.48;6.30;;;10.10;99.90;;;;;;5024513;28;20041;-60
2023/03/20 01:51:18;;;;;;;9.38;6.28;;;10.10;99.90;;;;;;5045667;28;20052;-59
2023/03/20 01:53:50;;;;;;;8.70;5.93;;;10.10;99.90;;;;;;5028627;28;20037;-59
2023/03/20 01:56:18;;;;;;;8.25;6.28;;;10.00;99.90;;;;;;5010508;28;20054;-59
2023/03/20 01:58:50;;;;;;;8.38;5.97;;;10.00;99.90;;;;;;5033407;28;20025;-60
2023/03/20 02:01:17;;;;;;;13.57;6.50;;;9.90;99.90;;;;;;5010040;28;20582;-58
2023/03/20 02:03:46;;;;;;;9.07;6.03;;;9.80;99.90;;;;;;5032950;28;20100;-59
2023/03/20 02:06:12;;;;;;;10.88;6.65;;;9.70;99.90;;;;;;5043361;28;20039;-59
2023/03/20 02:08:55;;;;;;;9.43;6.20;;;9.60;99.90;;;;;;5028729;28;20417;-58
2023/03/20 02:11:23;;;;;;;9.80;6.78;;;9.50;99.90;;;;;;5010315;28;20084;-57
2023/03/20 02:13:51;;;;;;;8.15;5.82;;;9.40;99.90;;;;;;5030754;28;20068;-59
2023/03/20 02:16:18;;;;;;;10.18;6.15;;;9.30;99.90;;;;;;5049657;28;20037;-59
2023/03/20 02:18:47;;;;;;;7.88;5.53;;;9.20;99.90;;;;;;5028604;28;20033;-58
2023/03/20 02:21:44;;;;;;;12.30;7.28;;;9.10;99.90;;;;;;5049526;28;20114;-58
2023/03/20 02:24:37;;;;;;;10.30;6.07;;;9.10;99.90;;;;;;5028725;28;20025;-59
2023/03/20 02:27:33;;;;;;;8.98;6.15;;;9.00;99.90;;;;;;5009786;28;20494;-58
2023/03/20 02:30:31;;;;;;;10.05;6.72;;;8.80;99.90;;;;;;5049619;28;20504;-59
2023/03/20 02:33:32;;;;;;;8.25;5.72;;;8.80;99.90;;;;;;5024395;28;20029;-58
2023/03/20 02:36:15;;;;;;;9.60;6.35;;;8.70;99.90;;;;;;5009893;28;20037;-57
2023/03/20 02:38:44;;;;;;;8.88;6.22;;;8.60;99.90;;;;;;5022492;28;20496;-59
2023/03/20 02:41:31;;;;;;;8.63;5.70;;;8.50;99.90;;;;;;5030273;28;20099;-58
2023/03/20 02:44:03;;;;;;;9.50;6.28;;;8.50;99.90;;;;;;5009402;28;20025;-58
2023/03/20 02:47:02;;;;;;;9.38;6.20;;;8.50;99.90;;;;;;5046086;28;20503;-59
2023/03/20 02:49:50;;;;;;;7.30;5.72;;;8.50;99.90;;;;;;5013771;28;20029;-59
2023/03/20 02:52:18;;;;;;;9.93;6.50;;;8.40;99.90;;;;;;5048682;28;20023;-58
2023/03/20 02:54:54;;;;;;;7.50;6.18;;;8.50;99.90;;;;;;5033231;28;20041;-59
2023/03/20 02:57:26;;;;;;;11.88;6.03;;;8.50;99.90;;;;;;5047683;28;20025;-58
2023/03/20 02:59:58;;;;;;;11.88;6.43;;;8.50;99.90;;;;;;5020366;28;20261;-58
2023/03/20 03:02:36;;;;;;;8.45;5.85;;;8.50;99.90;;;;;;5049164;28;20513;-58
2023/03/20 03:05:08;;;;;;;11.77;5.93;;;8.50;99.90;;;;;;5022723;28;20401;-59
2023/03/20 03:07:35;;;;;;;10.07;5.95;;;8.50;99.90;;;;;;5009365;28;20025;-59
2023/03/20 03:10:12;;;;;;;8.68;5.57;;;8.50;99.90;;;;;;5045988;28;20035;-58
2023/03/20 03:12:42;;;;;;;10.05;6.57;;;8.50;99.90;;;;;;5008427;28;20512;-58
2023/03/20 03:15:40;;;;;;;10.13;6.05;;;8.50;99.90;;;;;;5046607;28;20118;-58
2023/03/20 03:18:10;;;;;;;9.18;6.40;;;8.50;99.90;;;;;;5009225;28;20445;-58
2023/03/20 03:20:38;;;;;;;8.80;5.38;;;8.60;99.90;;;;;;5019602;28;20026;-57
2023/03/20 03:23:05;;;;;;;8.88;5.10;;;8.60;99.90;;;;;;5048461;28;20052;-58
2023/03/20 03:25:41;;;;;;;9.32;6.28;;;8.60;99.90;;;;;;5027346;28;20082;-57
2023/03/20 03:28:27;;;;;;;9.57;5.90;;;8.70;99.90;;;;;;5009024;28;20049;-58
2023/03/20 03:30:55;;;;;;;9.35;5.93;;;8.70;99.90;;;;;;5025719;28;20044;-57
2023/03/20 03:33:24;;;;;;;10.73;6.68;;;8.80;99.90;;;;;;5048422;28;20029;-58
2023/03/20 03:35:54;;;;;;;8.88;6.35;;;8.80;99.90;;;;;;5026995;28;20032;-58
2023/03/20 03:38:47;;;;;;;8.07;5.93;;;8.90;99.90;;;;;;5009024;28;20133;-58
2023/03/20 03:41:27;;;;;;;15.90;7.35;;;9.00;99.90;;;;;;5024407;28;20109;-58
2023/03/20 03:44:19;;;;;;;9.55;6.55;;;9.00;99.90;;;;;;5047969;28;20025;-58
2023/03/20 03:46:53;;;;;;;10.77;6.90;;;9.00;99.90;;;;;;5048502;28;20108;-58
2023/03/20 03:49:28;;;;;;;10.05;7.07;;;9.00;99.90;;;;;;5010441;28;20034;-58
2023/03/20 03:51:57;;;;;;;9.52;6.63;;;9.10;99.90;;;;;;5048399;28;20033;-58
2023/03/20 03:54:55;;;;;;;8.98;6.40;;;9.10;99.90;;;;;;5028662;28;20028;-58
2023/03/20 03:57:28;;;;;;;10.20;6.53;;;9.10;99.90;;;;;;5047865;28;20120;-58
2023/03/20 03:59:56;;;;;;;12.00;6.90;;;9.10;99.90;;;;;;5020077;28;20063;-58
2023/03/20 04:02:23;;;;;;;11.43;7.00;;;9.10;99.90;;;;;;5048284;28;20024;-58
2023/03/20 04:04:52;;;;;;;11.52;7.30;;;9.20;99.90;;;;;;5029427;28;20021;-58
2023/03/20 04:07:18;;;;;;;8.25;6.28;;;9.20;99.90;;;;;;5045992;28;21113;-59
2023/03/20 04:09:43;;;;;;;8.88;6.45;;;9.20;99.90;;;;;;5048517;28;20045;-59
2023/03/20 04:12:32;;;;;;;10.80;7.70;;;9.30;99.90;;;;;;5028472;28;20091;-58
2023/03/20 04:14:57;;;;;;;12.00;7.35;;;9.20;99.90;;;;;;5046919;28;20711;-48
2023/03/20 04:17:23;;;;;;;11.23;7.95;;;9.30;99.90;;;;;;5030339;28;20119;-44
2023/03/20 04:19:48;;;;;;;9.63;7.05;;;9.30;99.90;;;;;;5048355;28;20435;-44
2023/03/20 04:22:14;;;;;;;10.20;7.57;;;9.30;99.90;;;;;;5026791;28;20037;-44
2023/03/20 04:24:39;;;;;;;10.82;8.00;;;9.30;99.90;;;;;;5029943;28;20018;-49
2023/03/20 04:27:05;;;;;;;18.30;10.05;;;9.40;99.90;;;;;;5049505;28;20051;-48
2023/03/20 04:29:31;;;;;;;13.10;9.25;;;9.40;99.90;;;;;;5052291;28;20025;-45
2023/03/20 04:31:56;;;;;;;17.63;10.40;;;9.40;99.90;;;;;;5032346;28;20379;-44
2023/03/20 04:34:22;;;;;;;15.23;9.50;;;9.40;99.90;;;;;;5047786;28;20116;-50
2023/03/20 04:36:48;;;;;;;16.77;9.77;;;9.40;99.90;;;;;;5052476;28;20028;-45
2023/03/20 04:39:14;;;;;;;14.85;8.63;;;9.40;99.90;;;;;;5030853;28;20054;-47
2023/03/20 04:41:39;;;;;;;14.02;9.60;;;9.40;99.90;;;;;;5032070;28;20021;-45
2023/03/20 04:44:05;;;;;;;15.05;8.75;;;9.40;99.90;;;;;;5032039;28;20033;-47
2023/03/20 04:46:30;;;;;;;12.30;8.80;;;9.30;99.90;;;;;;5049700;28;20042;-46
2023/03/20 04:48:56;;;;;;;12.73;7.70;;;9.40;99.90;;;;;;5032422;28;20087;-46
2023/03/20 04:51:21;;;;;;;10.35;7.30;;;9.40;99.90;;;;;;5049490;28;20405;-48
2023/03/20 04:53:47;;;;;;;10.68;7.85;;;9.40;99.90;;;;;;5032407;28;20049;-45
2023/03/20 04:56:12;;;;;;;9.65;6.80;;;9.40;99.90;;;;;;5049305;28;20423;-47
2023/03/20 04:58:38;;;;;;;10.40;7.53;;;9.30;99.90;;;;;;5032558;28;20025;-46
2023/03/20 05:01:04;;;;;;;12.38;7.45;;;9.40;99.90;;;;;;5048864;28;20082;-47
2023/03/20 05:03:29;;;;;;;10.82;7.68;;;9.30;99.90;;;;;;5051974;28;20035;-46
2023/03/20 05:05:55;;;;;;;9.82;6.47;;;9.30;99.90;;;;;;5030466;28;20028;-45
2023/03/20 05:08:20;;;;;;;9.05;6.38;;;9.30;99.90;;;;;;5049551;28;20051;-45
2023/03/20 05:10:46;;;;;;;10.13;7.13;;;9.30;99.90;;;;;;5032309;28;20025;-45
2023/03/20 05:13:11;;;;;;;12.13;8.35;;;9.30;99.90;;;;;;5047562;28;20501;-44
2023/03/20 05:15:37;;;;;;;10.43;7.57;;;9.30;99.90;;;;;;5031923;28;20025;-43
2023/03/20 05:18:02;;;;;;;12.90;7.50;;;9.30;99.90;;;;;;5047768;28;20041;-44
2023/03/20 05:20:28;;;;;;;12.88;8.05;;;9.30;99.90;;;;;;5032147;28;20452;-46
2023/03/20 05:22:54;;;;;;;14.70;8.70;;;9.30;99.90;;;;;;5048714;28;20458;-43
2023/03/20 05:25:19;;;;;;;9.88;6.93;;;9.30;99.90;;;;;;5051335;28;20040;-44
2023/03/20 05:27:45;;;;;;;14.95;9.18;;;9.30;99.90;;;;;;5035781;28;20108;-46
2023/03/20 05:30:12;;;;;;;17.55;10.13;;;9.30;99.90;;;;;;5050360;28;20104;-44
2023/03/20 05:32:39;;;;;;;17.55;10.10;;;9.30;99.90;;;;;;5024903;28;20045;-45
2023/03/20 05:35:05;;;;;;;14.88;9.60;;;9.30;99.90;;;;;;5032807;28;20394;-46
2023/03/20 05:37:32;;;;;;;17.45;9.88;;;9.30;99.90;;;;;;5026878;28;20064;-44
2023/03/20 05:39:57;;;;;;;18.02;10.52;;;9.30;99.90;;;;;;5045024;28;20033;-44
2023/03/20 05:42:23;;;;;;;13.00;9.02;;;9.20;99.90;;;;;;5029200;28;20113;-48
2023/03/20 05:44:48;;;;;;;16.67;9.77;;;9.30;99.90;;;;;;5045675;28;20029;-45
2023/03/20 05:47:14;;;;;;;17.52;10.13;;;9.30;99.90;;;;;;5050993;28;20039;-45
2023/03/20 05:49:39;;;;;;;17.90;10.52;;;9.30;99.90;;;;;;5031328;28;20602;-45
2023/03/20 05:52:05;;;;;;;17.58;11.60;;;9.30;99.90;;;;;;5048279;28;20055;-45
2023/03/20 05:54:30;;;;;;;16.42;10.70;;;9.30;99.90;;;;;;5031122;28;20037;-50
2023/03/20 05:56:56;;;;;;;15.52;10.02;;;9.30;99.90;;;;;;5029681;28;20104;-47
2023/03/20 05:59:21;;;;;;;13.88;9.48;;;9.40;99.90;;;;;;5050052;28;20520;-46
2023/03/20 06:01:47;;;;;;;12.18;8.38;;;9.40;99.90;;;;;;5037466;28;20029;-48
2023/03/20 06:04:12;;;;;;;14.00;9.27;;;9.40;99.90;;;;;;5030837;28;20033;-47
2023/03/20 06:06:38;;;;;;;12.18;8.55;;;9.50;99.90;;;;;;5025839;28;20405;-49
2023/03/20 06:09:04;;;;;;;11.93;7.95;;;9.50;99.90;;;;;;5049490;28;20057;-49
2023/03/20 06:11:29;;;;;;;15.13;9.35;;;9.50;99.90;;;;;;5028750;28;20025;-46
2023/03/20 06:13:56;;;;;;;12.05;7.63;;;9.60;99.90;;;;;;5048884;28;20495;-46
2023/03/20 06:16:22;;;;;;;10.98;7.85;;;9.60;99.90;;;;;;5028546;28;20048;-45
2023/03/20 06:18:48;;;;;;;13.70;8.75;;;9.60;99.90;;;;;;5049203;28;20379;-72
2023/03/20 06:21:13;;;;;;;11.27;8.40;;;9.70;99.90;;;;;;5038709;28;20040;-52
2023/03/20 06:23:39;;;;;;;13.75;9.63;;;9.70;99.90;;;;;;5030476;28;20033;-73
2023/03/20 06:26:05;;;;;;;12.32;8.38;;;9.70;99.90;;;;;;5032744;28;20083;-72
2023/03/20 06:28:31;;;;;;;11.82;8.10;;;9.70;99.90;;;;;;5048829;28;20112;-72
2023/03/20 06:30:56;;;;;;;12.73;8.50;;;9.80;99.90;;;;;;5032719;28;20048;-73
2023/03/20 06:33:22;;;;;;;15.25;8.98;;;9.80;99.90;;;;;;5046758;28;20033;-73
2023/03/20 06:35:48;;;;;;;11.48;8.07;;;9.90;99.90;;;;;;5038779;28;20539;-73
2023/03/20 06:38:14;;;;;;;11.60;7.60;;;9.90;99.90;;;;;;5029828;28;20520;-73
2023/03/20 06:40:40;;;;;;;13.02;8.30;;;10.00;99.90;;;;;;5035813;28;20076;-72
2023/03/20 06:43:06;;;;;;;10.95;6.60;;;10.00;99.90;;;;;;5046819;28;20033;-72
2023/03/20 06:45:32;;;;;;;12.32;7.75;;;10.10;99.90;;;;;;5033433;28;20120;-72
2023/03/20 06:47:58;;;;;;;15.77;8.45;;;10.20;99.90;;;;;;5048626;28;20440;-70
2023/03/20 06:50:24;;;;;;;14.10;7.05;;;10.20;99.90;;;;;;5031250;28;20021;-73
2023/03/20 06:52:50;;;;;;;13.88;7.97;;;10.20;99.90;;;;;;5049186;28;20017;-72
2023/03/20 06:55:15;;;;;;;8.48;6.55;;;10.30;99.90;;;;;;5029147;28;20036;-72
2023/03/20 06:57:41;;;;;;;10.07;7.07;;;10.30;99.90;;;;;;5049260;28;20048;-73
2023/03/20 07:00:09;;;;;;;10.82;7.53;;;10.40;99.90;;;;;;5033527;28;20098;-72
2023/03/20 07:02:34;;;;;;;12.05;7.90;;;10.40;99.90;;;;;;5047684;28;20021;-72
2023/03/20 07:05:00;;;;;;;11.00;7.13;;;10.40;99.90;;;;;;5025027;28;20576;-72
2023/03/20 07:07:26;;;;;;;13.10;8.75;;;10.40;99.90;;;;;;5049159;28;20036;-72
2023/03/20 07:09:51;;;;;;;15.85;9.95;;;10.40;99.90;;;;;;5031331;28;20091;-73
2023/03/20 07:12:18;;;;;;;16.50;9.57;;;10.50;99.90;;;;;;5048790;28;20036;-72
2023/03/20 07:14:44;;;;;;;14.00;9.88;;;10.50;99.90;;;;;;5027466;28;20036;-73
2023/03/20 07:17:11;;;;;;;18.73;9.85;;;10.50;99.90;;;;;;5047980;28;20096;-73
2023/03/20 07:19:36;;;;;;;14.15;9.50;;;10.60;99.90;;;;;;5037174;28;20032;-73
2023/03/20 07:22:06;;;;;;;12.48;9.18;;;10.60;99.90;;;;;;5029311;28;20578;-73
2023/03/20 07:24:33;;;;;;;13.77;9.80;;;10.70;99.90;;;;;;5046662;28;20029;-73
2023/03/20 07:26:59;;;;;;;13.70;10.70;;;10.70;99.90;;;;;;5036189;28;20052;-71
2023/03/20 07:29:24;;;;;;;14.18;9.38;;;10.70;99.90;;;;;;5027485;28;20394;-73
2023/03/20 07:31:50;;;;;;;16.85;10.40;;;10.80;99.90;;;;;;5047630;28;20142;-74
2023/03/20 07:34:16;;;;;;;17.40;11.63;;;10.80;99.90;;;;;;5029684;28;20054;-73
2023/03/20 07:36:42;;;;;;;16.80;11.18;;;10.80;99.90;;;;;;5048658;28;20251;-73
2023/03/20 07:39:08;;;;;;;15.00;10.65;;;10.80;99.90;;;;;;5030432;28;20039;-73
2023/03/20 07:41:33;;;;;;;20.92;12.90;;;10.80;99.90;;;;;;5048224;28;20044;-73
2023/03/20 07:43:59;;;;;;;19.55;12.00;;;10.80;99.90;;;;;;5029132;28;20025;-72
2023/03/20 07:46:25;;;;;;;22.58;14.40;;;10.70;99.90;;;;;;5046440;28;20033;-73
2023/03/20 07:48:50;;;;;;;17.77;12.15;;;10.70;99.90;;;;;;5028995;28;20041;-73
2023/03/20 07:51:16;;;;;;;23.23;15.35;;;10.70;99.90;;;;;;5045597;28;20041;-73
2023/03/20 07:53:42;;;;;;;23.17;13.82;;;10.70;99.90;;;;;;5027549;28;20037;-73
2023/03/20 07:56:08;;;;;;;27.52;15.65;;;10.80;99.90;;;;;;5045472;28;20028;-72
2023/03/20 07:58:33;;;;;;;29.02;15.60;;;10.80;99.90;;;;;;5047579;28;20040;-73
2023/03/20 08:00:59;;;;;;;23.85;15.07;;;10.80;99.90;;;;;;5027506;28;20038;-73
2023/03/20 08:03:25;;;;;;;31.10;17.65;;;10.80;99.90;;;;;;5027272;28;20033;-74
2023/03/20 08:05:50;;;;;;;31.15;17.73;;;10.80;99.90;;;;;;5033084;28;20026;-74
2023/03/20 08:08:16;;;;;;;26.02;15.05;;;10.80;99.90;;;;;;5027825;28;20382;-73
2023/03/20 08:10:41;;;;;;;25.73;15.80;;;10.80;99.90;;;;;;5047430;28;20033;-74
2023/03/20 08:13:07;;;;;;;27.58;15.70;;;10.80;99.90;;;;;;5026908;28;20029;-74
2023/03/20 08:15:32;;;;;;;27.77;17.20;;;10.80;99.90;;;;;;5047204;28;20029;-64
2023/03/20 08:17:57;;;;;;;29.63;17.65;;;10.70;99.90;;;;;;5026810;28;20037;-65
2023/03/20 08:20:23;;;;;;;27.00;16.60;;;10.70;99.90;;;;;;5047420;28;20480;-64
2023/03/20 08:22:49;;;;;;;28.60;16.95;;;10.60;99.90;;;;;;5026803;28;20067;-65
2023/03/20 08:25:15;;;;;;;33.03;17.88;;;10.60;99.90;;;;;;5047075;28;20044;-64
2023/03/20 08:27:41;;;;;;;27.83;16.90;;;10.60;99.90;;;;;;5026852;28;20026;-65
2023/03/20 08:30:08;;;;;;;29.08;16.30;;;10.60;99.90;;;;;;5047261;28;20025;-64
2023/03/20 08:32:33;;;;;;;28.15;16.25;;;10.60;99.90;;;;;;5026253;28;20091;-65
2023/03/20 08:34:59;;;;;;;23.55;13.10;;;10.60;99.90;;;;;;5047122;28;20128;-64
2023/03/20 08:37:25;;;;;;;26.65;14.68;;;10.60;99.90;;;;;;5037129;28;20068;-65
2023/03/20 08:39:50;;;;;;;23.45;14.32;;;10.60;99.90;;;;;;5028368;28;20025;-65
2023/03/20 08:42:16;;;;;;;24.75;14.45;;;10.60;99.90;;;;;;5044922;28;20029;-65
2023/03/20 08:44:41;;;;;;;21.05;11.98;;;10.70;99.90;;;;;;5028561;28;20029;-65
2023/03/20 08:47:09;;;;;;;21.80;12.65;;;10.70;99.90;;;;;;5045062;28;20037;-64
2023/03/20 08:49:34;;;;;;;36.50;12.82;;;10.70;99.90;;;;;;5027823;28;20583;-64
2023/03/20 08:52:00;;;;;;;23.55;13.20;;;10.70;99.90;;;;;;5045102;28;20061;-64
2023/03/20 08:54:26;;;;;;;22.77;12.13;;;10.70;99.90;;;;;;5047825;28;20099;-64
2023/03/20 08:56:52;;;;;;;22.67;12.02;;;10.80;99.90;;;;;;5032120;28;20107;-65
2023/03/20 08:59:18;;;;;;;25.55;11.75;;;10.90;99.90;;;;;;5047649;28;20067;-64
2023/03/20 09:01:44;;;;;;;20.00;10.70;;;11.00;99.90;;;;;;5031116;28;20055;-65
2023/03/20 09:04:10;;;;;;;18.45;10.18;;;11.10;99.90;;;;;;5047680;28;20262;-64
2023/03/20 09:06:36;;;;;;;25.25;12.90;;;11.20;99.90;;;;;;5026757;28;20086;-65
2023/03/20 09:09:02;;;;;;;22.77;12.60;;;11.20;99.90;;;;;;5047850;28;20037;-64
2023/03/20 09:11:28;;;;;;;22.60;12.68;;;11.30;99.90;;;;;;5030045;28;20087;-65
2023/03/20 09:13:53;;;;;;;24.90;12.90;;;11.30;99.90;;;;;;5050903;28;20037;-65
2023/03/20 09:16:19;;;;;;;24.65;14.32;;;11.30;99.90;;;;;;5031105;28;20029;-65
2023/03/20 09:18:44;;;;;;;24.27;11.77;;;11.40;99.90;;;;;;5051044;28;20104;-65
2023/03/20 09:21:10;;;;;;;21.98;13.18;;;11.50;99.90;;;;;;5029690;28;20230;-64
2023/03/20 09:23:35;;;;;;;21.70;11.68;;;11.50;99.90;;;;;;5050806;28;20080;-65
2023/03/20 09:26:00;;;;;;;23.08;12.48;;;11.70;99.90;;;;;;5031305;28;20405;-64
2023/03/20 09:28:26;;;;;;;23.52;12.65;;;11.80;99.90;;;;;;5029318;28;20025;-65
2023/03/20 09:30:58;;;;;;;20.08;11.52;;;12.00;99.90;;;;;;5045656;28;20037;-65
2023/03/20 09:33:25;;;;;;;22.85;12.15;;;12.30;99.90;;;;;;5027695;28;20556;-65
2023/03/20 09:35:50;;;;;;;16.75;9.73;;;12.60;99.90;;;;;;5050010;28;20305;-65
2023/03/20 09:38:16;;;;;;;19.58;10.70;;;12.90;99.90;;;;;;5029167;28;20505;-65
2023/03/20 09:40:48;;;;;;;19.42;11.02;;;13.20;99.90;;;;;;5049910;28;20033;-65
2023/03/20 09:43:37;;;;;;;18.90;11.35;;;13.40;99.90;;;;;;5026042;28;20032;-65
2023/03/20 09:46:17;;;;;;;19.15;10.68;;;13.40;98.60;;;;;;5009581;28;20034;-65
2023/03/20 09:49:22;;;;;;;21.98;11.77;;;13.50;98.60;;;;;;5026055;28;20026;-65
2023/03/20 09:51:57;;;;;;;18.38;10.85;;;13.70;93.40;;;;;;5047194;28;20036;-65
2023/03/20 09:54:35;;;;;;;17.58;10.55;;;13.80;94.80;;;;;;5050466;28;20029;-65
2023/03/20 09:57:01;;;;;;;15.00;9.07;;;14.00;94.90;;;;;;5022972;28;20095;-65
2023/03/20 09:59:29;;;;;;;14.10;9.10;;;14.30;94.40;;;;;;5050336;28;20053;-65
2023/03/20 10:01:59;;;;;;;13.50;8.38;;;14.50;92.10;;;;;;5034733;28;20090;-65
2023/03/20 10:04:28;;;;;;;18.92;10.55;;;14.60;91.20;;;;;;5050470;28;20021;-65
2023/03/20 10:06:54;;;;;;;18.95;10.65;;;14.60;90.10;;;;;;5017508;28;20497;-66
2023/03/20 10:09:27;;;;;;;16.25;9.10;;;14.40;84.60;;;;;;5050084;28;20013;-65
2023/03/20 10:12:17;;;;;;;14.75;9.13;;;14.30;85.00;;;;;;5034427;28;20099;-66
2023/03/20 10:15:14;;;;;;;17.98;11.10;;;14.20;85.90;;;;;;5049930;28;20053;-65
2023/03/20 10:17:47;;;;;;;17.23;9.77;;;14.30;77.60;;;;;;5033332;28;20242;-65
2023/03/20 10:20:25;;;;;;;13.30;8.60;;;14.20;83.40;;;;;;5009905;28;20045;-65
2023/03/20 10:22:57;;;;;;;14.57;9.43;;;14.20;83.80;;;;;;5021795;28;20401;-65
2023/03/20 10:25:31;;;;;;;16.48;9.55;;;14.20;82.00;;;;;;5010117;28;20514;-65
2023/03/20 10:27:58;;;;;;;20.95;10.10;;;14.20;77.70;;;;;;5023152;28;20029;-65
2023/03/20 10:31:11;;;;;;;14.48;9.02;;;14.10;77.00;;;;;;5048657;28;20416;-64
2023/03/20 10:33:56;;;;;;;14.93;8.55;;;14.20;78.60;;;;;;5025258;28;20069;-65
2023/03/20 10:36:49;;;;;;;13.23;8.48;;;14.50;81.90;;;;;;5011578;28;20053;-65
2023/03/20 10:39:33;;;;;;;13.82;7.68;;;14.70;76.10;;;;;;5049255;28;20592;-65
2023/03/20 10:42:05;;;;;;;15.55;9.05;;;14.80;78.40;;;;;;5021626;28;20035;-64
2023/03/20 10:44:41;;;;;;;12.60;7.85;;;14.80;73.60;;;;;;5049314;28;20025;-65
2023/03/20 10:47:12;;;;;;;17.17;8.25;;;14.70;75.00;;;;;;5023918;28;20029;-65
2023/03/20 10:49:42;;;;;;;15.23;8.70;;;14.60;74.60;;;;;;5009717;28;20046;-65
2023/03/20 10:52:21;;;;;;;12.77;7.43;;;14.40;75.50;;;;;;5047184;28;20029;-65
2023/03/20 10:54:52;;;;;;;12.82;7.55;;;14.40;75.90;;;;;;5028962;28;20033;-65
2023/03/20 10:57:23;;;;;;;13.77;7.68;;;14.30;75.80;;;;;;5026375;28;20048;-65
2023/03/20 10:59:55;;;;;;;15.18;8.23;;;14.20;74.20;;;;;;5009502;28;20037;-65
2023/03/20 11:02:23;;;;;;;11.93;7.32;;;14.10;72.50;;;;;;5046587;28;20059;-65
2023/03/20 11:04:49;;;;;;;12.60;7.63;;;14.00;74.80;;;;;;5028712;28;20082;-64
2023/03/20 11:07:24;;;;;;;14.05;7.80;;;14.00;74.20;;;;;;5046620;28;20506;-65
2023/03/20 11:10:09;;;;;;;10.60;6.97;;;13.90;74.00;;;;;;5009251;28;20285;-65
2023/03/20 11:12:44;;;;;;;13.57;7.03;;;13.90;73.00;;;;;;5035142;28;20498;-65
2023/03/20 11:15:13;;;;;;;10.80;6.78;;;13.80;74.70;;;;;;5009085;28;20330;-65
2023/03/20 11:17:38;;;;;;;11.43;7.05;;;13.90;76.10;;;;;;5033163;28;20410;-66
2023/03/20 11:20:05;;;;;;;11.43;7.28;;;13.90;75.30;;;;;;5048020;28;20043;-66
2023/03/20 11:22:30;;;;;;;9.77;6.45;;;13.80;73.60;;;;;;5027330;28;20029;-65
2023/03/20 11:25:00;;;;;;;13.07;7.32;;;13.70;74.60;;;;;;5047767;28;20512;-65
2023/03/20 11:27:33;;;;;;;11.95;6.55;;;13.70;75.30;;;;;;5037871;28;20400;-65
2023/03/20 11:30:02;;;;;;;10.30;6.70;;;13.70;74.00;;;;;;5027810;28;20107;-64
2023/03/20 11:32:33;;;;;;;10.55;5.90;;;13.60;74.80;;;;;;5046309;28;20440;-65
2023/03/20 11:35:17;;;;;;;11.05;5.82;;;13.60;75.30;;;;;;5028005;28;20271;-64
2023/03/20 11:37:45;;;;;;;9.95;5.95;;;13.60;75.10;;;;;;5020047;28;20025;-65
2023/03/20 11:40:46;;;;;;;10.77;6.30;;;13.60;75.20;;;;;;5047894;28;20428;-65
2023/03/20 11:43:23;;;;;;;10.93;6.00;;;13.60;70.80;;;;;;5040999;28;20041;-66
2023/03/20 11:45:55;;;;;;;7.95;5.28;;;13.50;73.50;;;;;;5008840;28;20113;-65
2023/03/20 11:48:35;;;;;;;9.05;5.43;;;13.60;74.60;;;;;;5025140;28;20030;-65
2023/03/20 11:51:04;;;;;;;7.97;4.78;;;13.70;72.70;;;;;;5008693;28;20038;-65
2023/03/20 11:53:31;;;;;;;8.52;5.47;;;13.70;71.40;;;;;;5045541;28;20025;-65
2023/03/20 11:56:19;;;;;;;11.10;5.47;;;13.70;72.20;;;;;;5027163;28;20537;-65
2023/03/20 11:59:00;;;;;;;9.57;5.00;;;13.80;68.40;;;;;;5027160;28;20087;-65
2023/03/20 12:01:27;;;;;;;10.95;5.93;;;13.90;69.00;;;;;;5045866;28;20037;-65
2023/03/20 12:04:04;;;;;;;8.52;5.03;;;14.00;70.50;;;;;;5048055;28;20061;-65
2023/03/20 12:06:42;;;;;;;9.52;5.05;;;14.10;70.20;;;;;;5009530;28;20289;-60
2023/03/20 12:09:31;;;;;;;9.75;5.45;;;14.10;66.20;;;;;;5048331;28;20030;-59
2023/03/20 12:12:23;;;;;;;8.80;4.85;;;14.00;66.80;;;;;;5019810;28;20048;-60
2023/03/20 12:15:14;;;;;;;8.95;4.78;;;14.00;67.80;;;;;;5027931;28;20038;-65
2023/03/20 12:18:09;;;;;;;11.18;5.53;;;13.90;67.70;;;;;;5031488;28;20041;-65
2023/03/20 12:20:41;;;;;;;9.65;5.15;;;13.80;65.40;;;;;;5028880;28;20038;-65
2023/03/20 12:23:09;;;;;;;7.68;4.65;;;13.70;67.00;;;;;;5022701;28;20026;-60
2023/03/20 12:25:51;;;;;;;8.50;5.13;;;13.70;68.50;;;;;;5047316;28;20119;-53
2023/03/20 12:28:42;;;;;;;8.50;4.72;;;13.70;67.80;;;;;;5026053;28;20650;-65
2023/03/20 12:31:34;;;;;;;8.35;5.05;;;13.70;68.70;;;;;;5020511;28;20045;-65
2023/03/20 12:34:19;;;;;;;7.05;4.57;;;13.80;69.60;;;;;;5008303;28;20030;-64
2023/03/20 12:36:48;;;;;;;6.85;3.88;;;13.80;70.10;;;;;;5016427;28;20037;-65
2023/03/20 12:39:19;;;;;;;8.07;4.85;;;13.80;69.40;;;;;;5047432;28;20032;-65
2023/03/20 12:42:09;;;;;;;6.80;4.05;;;13.80;69.70;;;;;;5016238;28;20086;-65
2023/03/20 12:45:08;;;;;;;6.93;4.28;;;13.80;70.00;;;;;;5047754;28;20036;-65
2023/03/20 12:48:01;;;;;;;8.95;4.68;;;13.90;66.10;;;;;;5030191;28;20032;-65
2023/03/20 12:50:41;;;;;;;6.90;4.00;;;13.90;68.50;;;;;;5012035;28;20460;-65
2023/03/20 12:53:39;;;;;;;6.65;4.53;;;13.90;68.80;;;;;;5024857;28;20529;-65
2023/03/20 12:56:21;;;;;;;10.48;5.22;;;14.00;67.00;;;;;;5011931;28;20414;-64
2023/03/20 12:58:58;;;;;;;9.63;4.75;;;13.90;67.00;;;;;;5011873;28;20112;-65
2023/03/20 13:01:44;;;;;;;8.75;5.25;;;13.80;67.50;;;;;;5014196;28;20030;-65